createdAt,value
2022-11-24T00:01:11.511Z,87.40
2022-11-24T00:03:37.988Z,87.66
2022-11-24T00:06:07.383Z,87.89
2022-11-24T00:08:36.376Z,87.88
2022-11-24T00:11:11.804Z,88.07
2022-11-24T00:13:39.216Z,87.64
2022-11-24T00:16:14.724Z,87.57
2022-11-24T00:18:42.522Z,87.95
2022-11-24T00:21:09.241Z,87.91
2022-11-24T00:23:36.251Z,87.92
2022-11-24T00:26:07.329Z,87.74
2022-11-24T00:28:34.923Z,88.04
2022-11-24T00:31:01.790Z,87.88
2022-11-24T00:33:28.370Z,88.18
2022-11-24T00:35:58.768Z,88.42
2022-11-24T00:38:25.785Z,87.79
2022-11-24T00:40:52.790Z,88.36
2022-11-24T00:43:19.712Z,87.99
2022-11-24T00:45:46.178Z,87.84
2022-11-24T00:48:12.635Z,88.18
2022-11-24T00:50:39.051Z,88.11
2022-11-24T00:53:05.428Z,87.88
2022-11-24T00:55:31.799Z,87.70
2022-11-24T00:57:58.165Z,88.11
2022-11-24T01:00:24.571Z,87.88
2022-11-24T01:02:52.214Z,87.92
2022-11-24T01:05:19.049Z,88.10
2022-11-24T01:07:45.429Z,88.13
2022-11-24T01:10:11.817Z,88.70
2022-11-24T01:12:38.965Z,88.35
2022-11-24T01:15:05.929Z,88.27
2022-11-24T01:17:32.291Z,88.22
2022-11-24T01:19:58.635Z,88.01
2022-11-24T01:22:27.396Z,88.20
2022-11-24T01:24:53.867Z,88.35
2022-11-24T01:27:20.214Z,87.93
2022-11-24T01:29:46.727Z,88.20
2022-11-24T01:32:13.071Z,88.89
2022-11-24T01:34:39.412Z,88.04
2022-11-24T01:37:05.806Z,87.96
2022-11-24T01:39:32.160Z,88.37
2022-11-24T01:42:01.559Z,87.99
2022-11-24T01:44:30.385Z,88.16
2022-11-24T01:47:08.284Z,88.22
2022-11-24T01:49:51.621Z,88.39
2022-11-24T01:52:22.764Z,88.03
2022-11-24T01:54:53.321Z,87.62
2022-11-24T01:57:29.700Z,87.44
2022-11-24T02:00:01.843Z,87.10
2022-11-24T02:02:29.746Z,87.64
2022-11-24T02:05:05.533Z,87.70
2022-11-24T02:07:33.257Z,87.37
2022-11-24T02:10:04.618Z,87.00
2022-11-24T02:12:32.039Z,87.96
2022-11-24T02:14:59.198Z,88.05
2022-11-24T02:17:25.748Z,87.53
2022-11-24T02:19:58.420Z,87.58
2022-11-24T02:22:34.692Z,86.94
2022-11-24T02:25:27.214Z,87.41
2022-11-24T02:27:55.807Z,87.80
2022-11-24T02:30:22.239Z,87.42
2022-11-24T02:32:48.924Z,87.25
2022-11-24T02:35:15.520Z,87.77
2022-11-24T02:37:41.893Z,87.68
2022-11-24T02:40:09.150Z,88.00
2022-11-24T02:42:40.965Z,87.35
2022-11-24T02:45:09.380Z,87.77
2022-11-24T02:47:35.757Z,87.90
2022-11-24T02:50:02.207Z,87.93
2022-11-24T02:52:28.803Z,87.38
2022-11-24T02:54:55.174Z,87.80
2022-11-24T02:57:23.225Z,87.69
2022-11-24T02:59:49.682Z,87.52
2022-11-24T03:02:16.125Z,87.40
2022-11-24T03:04:44.560Z,87.23
2022-11-24T03:07:11.105Z,87.37
2022-11-24T03:09:37.497Z,87.05
2022-11-24T03:12:04.032Z,87.82
2022-11-24T03:14:30.372Z,88.26
2022-11-24T03:16:56.755Z,88.29
2022-11-24T03:19:23.223Z,88.24
2022-11-24T03:21:49.893Z,88.42
2022-11-24T03:24:16.499Z,88.66
2022-11-24T03:26:43.002Z,88.70
2022-11-24T03:29:09.372Z,88.77
2022-11-24T03:31:36.052Z,88.65
2022-11-24T03:34:02.495Z,88.81
2022-11-24T03:36:28.858Z,89.15
2022-11-24T03:38:55.551Z,88.85
2022-11-24T03:41:21.946Z,88.75
2022-11-24T03:43:48.364Z,89.26
2022-11-24T03:46:14.879Z,89.29
2022-11-24T03:48:41.365Z,89.41
2022-11-24T03:51:11.087Z,89.08
2022-11-24T03:53:37.682Z,89.48
2022-11-24T03:56:04.222Z,89.56
2022-11-24T03:58:30.907Z,89.22
2022-11-24T04:00:58.166Z,89.55
2022-11-24T04:03:25.051Z,89.27
2022-11-24T04:05:51.916Z,89.30
2022-11-24T04:08:19.260Z,89.28
2022-11-24T04:10:49.847Z,89.40
2022-11-24T04:13:17.879Z,89.01
2022-11-24T04:15:44.568Z,89.12
2022-11-24T04:18:12.449Z,89.55
2022-11-24T04:20:40.056Z,89.32
2022-11-24T04:23:07.099Z,89.25
2022-11-24T04:25:33.894Z,89.09
2022-11-24T04:28:00.262Z,89.45
2022-11-24T04:30:28.163Z,88.94
2022-11-24T04:32:55.108Z,89.25
2022-11-24T04:35:21.692Z,89.29
2022-11-24T04:37:48.390Z,88.98
2022-11-24T04:40:14.919Z,89.31
2022-11-24T04:42:41.557Z,89.46
2022-11-24T04:45:08.567Z,89.29
2022-11-24T04:47:35.051Z,89.07
2022-11-24T04:50:01.658Z,89.50
2022-11-24T04:52:30.137Z,89.28
2022-11-24T04:54:56.508Z,89.23
2022-11-24T04:57:25.689Z,88.91
2022-11-24T04:59:53.073Z,88.75
2022-11-24T05:02:19.913Z,88.76
2022-11-24T05:04:46.844Z,88.83
2022-11-24T05:07:18.460Z,88.72
2022-11-24T05:10:04.360Z,88.52
2022-11-24T05:12:31.300Z,88.33
2022-11-24T05:14:59.293Z,88.73
2022-11-24T05:17:29.688Z,88.50
2022-11-24T05:19:56.125Z,88.72
2022-11-24T05:22:22.540Z,88.55
2022-11-24T05:24:49.077Z,88.41
2022-11-24T05:27:15.551Z,88.61
2022-11-24T05:29:41.898Z,88.76
2022-11-24T05:32:08.353Z,88.46
2022-11-24T05:34:34.976Z,88.44
2022-11-24T05:37:03.435Z,88.27
2022-11-24T05:39:36.460Z,88.08
2022-11-24T05:42:24.943Z,88.08
2022-11-24T05:44:51.510Z,87.60
2022-11-24T05:47:18.547Z,87.37
2022-11-24T05:49:44.972Z,87.45
2022-11-24T05:52:11.387Z,87.18
2022-11-24T05:54:37.852Z,87.57
2022-11-24T05:57:04.747Z,87.64
2022-11-24T05:59:31.277Z,87.46
2022-11-24T06:01:57.696Z,87.08
2022-11-24T06:04:24.131Z,87.23
2022-11-24T06:06:50.838Z,87.16
2022-11-24T06:09:17.269Z,86.92
2022-11-24T06:11:43.693Z,86.83
2022-11-24T06:14:11.574Z,86.74
2022-11-24T06:16:38.404Z,87.32
2022-11-24T06:19:04.956Z,86.82
2022-11-24T06:21:31.803Z,87.22
2022-11-24T06:23:58.502Z,86.80
2022-11-24T06:26:24.867Z,86.57
2022-11-24T06:28:51.294Z,86.94
2022-11-24T06:31:17.731Z,87.25
2022-11-24T06:33:44.282Z,86.71
2022-11-24T06:36:13.673Z,86.84
2022-11-24T06:38:40.023Z,86.94
2022-11-24T06:41:14.496Z,86.84
2022-11-24T06:43:41.576Z,86.69
2022-11-24T06:46:08.258Z,87.43
2022-11-24T06:48:34.659Z,87.34
2022-11-24T06:51:02.839Z,86.85
2022-11-24T06:53:33.574Z,86.94
2022-11-24T06:56:00.890Z,86.82
2022-11-24T06:58:27.634Z,87.04
2022-11-24T07:00:54.236Z,86.99
2022-11-24T07:03:20.719Z,87.46
2022-11-24T07:05:47.289Z,87.62
2022-11-24T07:08:17.738Z,87.20
2022-11-24T07:10:44.398Z,87.93
2022-11-24T07:13:10.775Z,87.92
2022-11-24T07:15:37.159Z,87.81
2022-11-24T07:18:03.664Z,87.52
2022-11-24T07:20:30.050Z,87.54
2022-11-24T07:22:57.342Z,87.59
2022-11-24T07:25:26.778Z,87.16
2022-11-24T07:28:00.241Z,87.56
2022-11-24T07:30:28.207Z,87.75
2022-11-24T07:33:01.965Z,87.88
2022-11-24T07:35:29.635Z,88.16
2022-11-24T07:37:59.153Z,88.24
2022-11-24T07:40:26.979Z,88.10
2022-11-24T07:42:54.092Z,88.92
2022-11-24T07:45:20.873Z,88.81
2022-11-24T07:47:47.287Z,88.40
2022-11-24T07:50:14.112Z,88.11
2022-11-24T07:52:40.551Z,88.24
2022-11-24T07:55:07.888Z,88.27
2022-11-24T07:57:34.864Z,88.11
2022-11-24T08:00:01.679Z,88.11
2022-11-24T08:02:28.102Z,87.72
2022-11-24T08:04:54.456Z,87.64
2022-11-24T08:07:20.894Z,87.16
2022-11-24T08:09:47.420Z,87.15
2022-11-24T08:12:13.779Z,87.66
2022-11-24T08:14:40.117Z,87.38
2022-11-24T08:17:06.529Z,87.12
2022-11-24T08:19:33.044Z,87.42
2022-11-24T08:21:59.396Z,87.48
2022-11-24T08:24:27.449Z,87.66
2022-11-24T08:26:53.813Z,87.77
2022-11-24T08:29:20.225Z,87.59
2022-11-24T08:31:46.908Z,87.20
2022-11-24T08:34:13.357Z,87.02
2022-11-24T08:36:39.773Z,87.32
2022-11-24T08:39:06.134Z,87.26
2022-11-24T08:41:33.185Z,87.29
2022-11-24T08:43:59.683Z,87.31
2022-11-24T08:46:26.274Z,87.09
2022-11-24T08:48:54.738Z,87.10
2022-11-24T08:51:24.095Z,87.10
2022-11-24T08:53:58.093Z,87.28
2022-11-24T08:56:25.921Z,87.29
2022-11-24T08:58:53.333Z,87.52
2022-11-24T09:01:19.908Z,87.82
2022-11-24T09:03:50.638Z,87.16
2022-11-24T09:06:19.339Z,87.51
2022-11-24T09:08:45.921Z,87.76
2022-11-24T09:11:14.452Z,87.62
2022-11-24T09:13:41.703Z,87.89
2022-11-24T09:16:16.588Z,87.50
2022-11-24T09:18:43.188Z,87.64
2022-11-24T09:21:17.039Z,87.91
2022-11-24T09:23:44.420Z,88.26
2022-11-24T09:26:13.269Z,87.72
2022-11-24T09:28:40.138Z,87.25
2022-11-24T09:31:09.249Z,87.68
2022-11-24T09:33:36.707Z,88.08
2022-11-24T09:36:03.729Z,87.80
2022-11-24T09:38:30.257Z,86.66
2022-11-24T09:41:05.323Z,87.38
2022-11-24T09:43:45.347Z,87.26
2022-11-24T09:46:20.190Z,87.44
2022-11-24T09:48:51.041Z,87.42
2022-11-24T09:51:22.245Z,87.10
2022-11-24T09:53:55.660Z,87.44
2022-11-24T09:56:24.798Z,87.77
2022-11-24T09:58:52.979Z,87.31
2022-11-24T10:01:41.469Z,87.54
2022-11-24T10:04:28.136Z,88.33
2022-11-24T10:07:07.213Z,88.01
2022-11-24T10:09:40.760Z,88.19
2022-11-24T10:12:19.719Z,87.98
2022-11-24T10:15:21.635Z,87.68
2022-11-24T10:18:25.311Z,87.54
2022-11-24T10:21:02.717Z,87.13
2022-11-24T10:23:53.793Z,87.09
2022-11-24T10:26:33.837Z,87.61
2022-11-24T10:29:01.855Z,87.51
2022-11-24T10:31:36.770Z,87.74
2022-11-24T10:34:13.326Z,87.76
2022-11-24T10:36:55.482Z,87.82
2022-11-24T10:39:27.768Z,87.40
2022-11-24T10:42:26.515Z,87.64
2022-11-24T10:45:01.510Z,87.26
2022-11-24T10:47:28.401Z,87.65
2022-11-24T10:50:03.784Z,87.90
2022-11-24T10:52:37.918Z,87.92
2022-11-24T10:55:06.160Z,88.01
2022-11-24T10:57:33.996Z,88.24
2022-11-24T11:00:01.998Z,88.31
2022-11-24T11:02:39.664Z,87.63
2022-11-24T11:05:41.626Z,88.07
2022-11-24T11:08:14.232Z,88.88
2022-11-24T11:10:44.711Z,89.03
2022-11-24T11:13:28.867Z,89.15
2022-11-24T11:15:57.370Z,88.83
2022-11-24T11:18:30.613Z,89.19
2022-11-24T11:21:01.780Z,89.19
2022-11-24T11:23:32.160Z,88.71
2022-11-24T11:26:22.488Z,89.00
2022-11-24T11:35:02.653Z,87.90
2022-11-24T11:37:32.816Z,88.15
2022-11-24T11:40:00.174Z,88.37
2022-11-24T11:43:00.567Z,88.63
2022-11-24T11:45:34.435Z,88.80
2022-11-24T11:48:00.993Z,88.59
2022-11-24T11:51:23.454Z,89.03
2022-11-24T11:54:17.813Z,89.17
2022-11-24T11:56:48.050Z,89.49
2022-11-24T11:59:28.937Z,89.10
2022-11-24T12:02:24.058Z,89.35
2022-11-24T12:04:58.486Z,88.90
2022-11-24T12:08:09.713Z,89.17
2022-11-24T12:10:49.048Z,89.21
2022-11-24T12:13:37.465Z,89.21
2022-11-24T12:16:19.231Z,89.47
2022-11-24T12:19:14.363Z,89.30
2022-11-24T12:21:52.546Z,89.29
2022-11-24T12:24:30.349Z,89.54
2022-11-24T12:26:56.668Z,89.25
2022-11-24T12:30:02.913Z,89.50
2022-11-24T12:32:41.157Z,89.34
2022-11-24T12:35:35.541Z,89.76
2022-11-24T12:38:29.419Z,89.41
2022-11-24T12:44:03.080Z,89.13
2022-11-24T12:46:56.934Z,89.13
2022-11-24T12:49:38.452Z,89.30
2022-11-24T12:52:16.908Z,89.74
2022-11-24T12:54:43.285Z,89.62
2022-11-24T12:57:18.865Z,89.95
2022-11-24T13:00:00.241Z,89.59
2022-11-24T13:02:35.859Z,90.06
2022-11-24T13:05:25.554Z,90.00
2022-11-24T13:07:58.415Z,90.10
2022-11-24T13:10:54.300Z,89.43
2022-11-24T13:13:15.507Z,89.61
2022-11-24T13:18:57.285Z,89.45
2022-11-24T13:21:33.151Z,89.48
2022-11-24T13:24:05.487Z,88.86
2022-11-24T13:26:48.280Z,88.62
2022-11-24T13:29:35.045Z,88.93
2022-11-24T13:32:07.419Z,89.29
2022-11-24T13:34:40.062Z,89.19
2022-11-24T13:37:28.928Z,89.54
2022-11-24T13:40:22.494Z,89.92
2022-11-24T13:42:58.039Z,89.51
2022-11-24T13:45:40.033Z,89.44
2022-11-24T13:48:19.000Z,89.65
2022-11-24T13:50:51.567Z,89.22
2022-11-24T13:53:36.055Z,89.79
2022-11-24T13:56:24.925Z,89.71
2022-11-24T13:58:55.048Z,89.95
2022-11-24T14:01:28.354Z,90.09
2022-11-24T14:04:29.956Z,89.87
2022-11-24T14:07:07.398Z,90.26
2022-11-24T14:09:45.709Z,90.11
2022-11-24T14:12:18.906Z,90.22
2022-11-24T14:14:47.904Z,90.06
2022-11-24T14:17:24.395Z,90.33
2022-11-24T14:19:53.400Z,90.23
2022-11-24T14:22:36.680Z,90.62
2022-11-24T14:25:04.193Z,90.52
2022-11-24T14:27:34.501Z,90.59
2022-11-24T14:30:08.015Z,90.53
2022-11-24T14:32:34.555Z,90.70
2022-11-24T14:35:01.022Z,90.80
2022-11-24T14:37:27.521Z,90.70
2022-11-24T14:39:53.870Z,90.95
2022-11-24T14:42:21.927Z,91.29
2022-11-24T14:44:58.517Z,91.46
2022-11-24T14:47:37.819Z,90.95
2022-11-24T14:50:12.337Z,91.21
2022-11-24T14:52:53.501Z,91.15
2022-11-24T14:55:25.028Z,91.28
2022-11-24T14:57:51.375Z,91.06
2022-11-24T15:00:25.362Z,91.27
2022-11-24T15:03:00.469Z,91.06
2022-11-24T15:06:04.822Z,91.83
2022-11-24T15:08:42.233Z,91.57
2022-11-24T15:11:08.677Z,91.65
2022-11-24T15:13:38.055Z,91.90
2022-11-24T15:16:26.425Z,92.30
2022-11-24T15:19:02.521Z,92.21
2022-11-24T15:21:36.962Z,91.99
2022-11-24T15:24:17.993Z,91.86
2022-11-24T15:26:45.167Z,91.81
2022-11-24T15:29:12.606Z,91.66
2022-11-24T15:31:40.378Z,91.72
2022-11-24T15:34:07.551Z,91.97
2022-11-24T15:36:33.989Z,91.70
2022-11-24T15:39:00.349Z,91.98
2022-11-24T15:41:32.057Z,91.83
2022-11-24T15:43:59.310Z,92.24
2022-11-24T15:46:30.057Z,91.85
2022-11-24T15:48:57.123Z,92.02
2022-11-24T15:51:26.239Z,92.18
2022-11-24T15:54:00.404Z,92.34
2022-11-24T15:56:32.849Z,91.94
2022-11-24T15:59:00.397Z,92.41
2022-11-24T16:01:34.054Z,92.46
2022-11-24T16:04:01.295Z,92.14
2022-11-24T16:06:27.912Z,92.05
2022-11-24T16:08:54.869Z,92.34
2022-11-24T16:11:21.969Z,92.43
2022-11-24T16:13:52.267Z,92.23
2022-11-24T16:16:20.014Z,92.76
2022-11-24T16:18:46.443Z,92.62
2022-11-24T16:21:12.874Z,92.57
2022-11-24T16:23:39.314Z,92.69
2022-11-24T16:26:06.504Z,92.82
2022-11-24T16:28:33.083Z,92.94
2022-11-24T16:30:59.653Z,92.91
2022-11-24T16:33:26.027Z,92.94
2022-11-24T16:35:52.453Z,93.07
2022-11-24T16:38:20.121Z,92.94
2022-11-24T16:40:59.126Z,92.61
2022-11-24T16:43:25.549Z,93.08
2022-11-24T16:46:24.109Z,92.98
2022-11-24T16:48:52.656Z,93.09
2022-11-24T16:51:21.025Z,92.88
2022-11-24T16:53:47.784Z,92.90
2022-11-24T16:56:17.416Z,92.82
2022-11-24T16:58:43.991Z,93.00
2022-11-24T17:01:12.602Z,92.73
2022-11-24T17:03:39.582Z,92.55
2022-11-24T17:06:08.294Z,92.92
2022-11-24T17:08:36.257Z,92.79
2022-11-24T17:11:11.897Z,92.87
2022-11-24T17:13:39.169Z,92.76
2022-11-24T17:16:11.364Z,92.54
2022-11-24T17:18:39.095Z,92.42
2022-11-24T17:21:13.019Z,92.54
2022-11-24T17:23:39.812Z,92.55
2022-11-24T17:26:10.087Z,92.58
2022-11-24T17:28:36.849Z,92.36
2022-11-24T17:31:15.330Z,92.92
2022-11-24T17:33:41.724Z,92.76
2022-11-24T17:36:08.360Z,92.82
2022-11-24T17:38:36.019Z,92.54
2022-11-24T17:41:02.722Z,92.43
2022-11-24T17:43:29.157Z,92.43
2022-11-24T17:45:57.458Z,92.52
2022-11-24T17:48:23.882Z,92.86
2022-11-24T17:51:03.930Z,92.40
2022-11-24T17:53:31.101Z,92.15
2022-11-24T17:56:01.403Z,92.36
2022-11-24T17:58:29.035Z,92.48
2022-11-24T18:00:56.055Z,92.65
2022-11-24T18:03:23.094Z,92.48
2022-11-24T18:05:50.125Z,92.61
2022-11-24T18:08:17.000Z,92.80
2022-11-24T18:10:43.360Z,92.33
2022-11-24T18:13:18.178Z,92.64
2022-11-24T18:15:59.844Z,92.86
2022-11-24T18:18:26.276Z,92.80
2022-11-24T18:20:54.542Z,92.55
2022-11-24T18:23:20.921Z,92.94
2022-11-24T18:25:53.912Z,92.50
2022-11-24T18:28:20.380Z,92.95
2022-11-24T18:30:46.813Z,92.97
2022-11-24T18:33:13.472Z,92.59
2022-11-24T18:35:39.892Z,92.67
2022-11-24T18:38:07.343Z,92.88
2022-11-24T18:40:37.687Z,92.91
2022-11-24T18:43:04.291Z,93.00
2022-11-24T18:45:30.696Z,92.89
2022-11-24T18:47:57.232Z,92.76
2022-11-24T18:50:23.695Z,93.31
2022-11-24T18:52:50.148Z,92.85
2022-11-24T18:55:16.621Z,92.70
2022-11-24T18:57:42.988Z,92.57
2022-11-24T19:00:10.224Z,92.08
2022-11-24T19:02:36.642Z,91.85
2022-11-24T19:05:03.189Z,92.05
2022-11-24T19:07:29.581Z,92.29
2022-11-24T19:09:55.972Z,92.55
2022-11-24T19:12:22.429Z,92.34
2022-11-24T19:14:48.766Z,92.33
2022-11-24T19:17:15.183Z,92.48
2022-11-24T19:19:41.733Z,92.35
2022-11-24T19:22:08.706Z,92.45
2022-11-24T19:24:35.186Z,92.22
2022-11-24T19:27:01.976Z,92.36
2022-11-24T19:29:28.561Z,92.09
2022-11-24T19:31:55.529Z,92.24
2022-11-24T19:34:22.098Z,91.91
2022-11-24T19:36:48.736Z,92.07
2022-11-24T19:39:16.438Z,92.38
2022-11-24T19:41:43.097Z,92.25
2022-11-24T19:44:11.602Z,92.46
2022-11-24T19:46:39.821Z,92.46
2022-11-24T19:49:08.205Z,92.41
2022-11-24T19:51:37.416Z,92.44
2022-11-24T19:54:05.968Z,92.14
2022-11-24T19:56:35.042Z,92.15
2022-11-24T19:59:04.069Z,92.04
2022-11-24T20:01:33.520Z,92.48
2022-11-24T20:04:01.598Z,92.04
2022-11-24T20:06:30.636Z,92.51
2022-11-24T20:08:58.715Z,92.09
2022-11-24T20:11:25.085Z,92.62
2022-11-24T20:13:51.737Z,92.36
2022-11-24T20:16:28.045Z,92.00
2022-11-24T20:18:56.245Z,91.87
2022-11-24T20:21:28.432Z,92.27
2022-11-24T20:24:01.200Z,92.14
2022-11-24T20:26:30.456Z,91.85
2022-11-24T20:28:58.041Z,91.76
2022-11-24T20:31:30.539Z,91.90
2022-11-24T20:33:57.479Z,91.46
2022-11-24T20:36:27.670Z,91.25
2022-11-24T20:38:54.772Z,91.69
2022-11-24T20:41:27.114Z,91.34
2022-11-24T20:43:56.428Z,91.60
2022-11-24T20:46:26.185Z,91.57
2022-11-24T20:48:53.915Z,91.89
2022-11-24T20:51:22.992Z,91.75
2022-11-24T20:53:50.536Z,91.31
2022-11-24T20:56:20.184Z,91.64
2022-11-24T20:58:46.717Z,91.77
2022-11-24T21:01:15.865Z,91.09
2022-11-24T21:03:43.766Z,91.24
2022-11-24T21:06:12.423Z,91.45
2022-11-24T21:08:41.445Z,91.44
2022-11-24T21:11:10.968Z,91.91
2022-11-24T21:13:39.755Z,91.61
2022-11-24T21:16:13.225Z,91.49
2022-11-24T21:18:39.900Z,91.49
2022-11-24T21:21:06.416Z,91.84
2022-11-24T21:23:32.862Z,91.52
2022-11-24T21:26:05.711Z,91.66
2022-11-24T21:28:33.623Z,91.95
2022-11-24T21:31:08.735Z,92.00
2022-11-24T21:33:40.837Z,91.99
2022-11-24T21:36:07.661Z,91.97
2022-11-24T21:38:34.050Z,92.09
2022-11-24T21:41:05.832Z,91.89
2022-11-24T21:43:33.219Z,92.21
2022-11-24T21:46:02.625Z,91.91
2022-11-24T21:48:29.935Z,91.87
2022-11-24T21:51:01.387Z,92.03
2022-11-24T21:53:31.479Z,92.20
2022-11-24T21:56:00.255Z,92.22
2022-11-24T21:58:27.879Z,91.79
2022-11-24T22:00:54.593Z,92.05
2022-11-24T22:03:21.536Z,92.02
2022-11-24T22:05:58.730Z,91.81
2022-11-24T22:08:26.574Z,92.00
2022-11-24T22:10:53.111Z,92.10
2022-11-24T22:13:20.044Z,92.00
2022-11-24T22:15:46.409Z,92.02
2022-11-24T22:18:12.760Z,92.12
2022-11-24T22:20:39.220Z,91.65
2022-11-24T22:23:05.588Z,92.02
2022-11-24T22:25:33.364Z,91.15
2022-11-24T22:27:59.987Z,90.92
2022-11-24T22:30:26.338Z,90.30
2022-11-24T22:32:53.716Z,90.50
2022-11-24T22:35:20.216Z,89.97
2022-11-24T22:37:46.615Z,90.20
2022-11-24T22:40:13.080Z,90.25
2022-11-24T22:42:39.438Z,89.82
2022-11-24T22:45:06.486Z,89.88
2022-11-24T22:47:32.830Z,90.51
2022-11-24T22:49:59.201Z,90.44
2022-11-24T22:52:25.548Z,90.39
2022-11-24T22:54:51.899Z,90.53
2022-11-24T22:57:18.300Z,90.23
2022-11-24T22:59:44.635Z,89.96
2022-11-24T23:02:10.980Z,90.03
2022-11-24T23:04:37.627Z,89.81
2022-11-24T23:07:04.270Z,89.89
2022-11-24T23:09:30.657Z,89.83
2022-11-24T23:11:57.008Z,89.61
2022-11-24T23:14:23.342Z,89.76
2022-11-24T23:16:49.757Z,89.34
2022-11-24T23:19:16.161Z,89.29
2022-11-24T23:21:42.500Z,89.58
2022-11-24T23:24:10.740Z,89.18
2022-11-24T23:26:39.559Z,89.24
2022-11-24T23:29:07.279Z,89.48
2022-11-24T23:31:34.038Z,89.33
2022-11-24T23:34:02.823Z,89.48
2022-11-24T23:36:30.079Z,89.13
2022-11-24T23:39:00.732Z,89.74
2022-11-24T23:41:27.106Z,89.44
2022-11-24T23:43:53.533Z,89.27
2022-11-24T23:46:22.881Z,89.19
2022-11-24T23:48:51.369Z,88.84
2022-11-24T23:51:20.434Z,89.39
2022-11-24T23:53:47.309Z,89.12
2022-11-24T23:56:16.223Z,89.14
2022-11-24T23:58:42.957Z,88.68
